sensor_id;sensor_type;location;lat;lon;timestamp;P1;durP1;ratioP1;P2;durP2;ratioP2
60014;SDS011;45867;52.480;6.056;2022-11-11T00:00:31;14.68;;;7.70;;
60014;SDS011;45867;52.480;6.056;2022-11-11T00:02:57;27.13;;;8.35;;
60014;SDS011;45867;52.480;6.056;2022-11-11T00:05:23;23.25;;;9.00;;
60014;SDS011;45867;52.480;6.056;2022-11-11T00:07:52;21.98;;;8.38;;
60014;SDS011;45867;52.480;6.056;2022-11-11T00:10:25;17.85;;;8.30;;
60014;SDS011;45867;52.480;6.056;2022-11-11T00:12:53;18.25;;;8.05;;
60014;SDS011;45867;52.480;6.056;2022-11-11T00:15:22;17.13;;;7.35;;
60014;SDS011;45867;52.480;6.056;2022-11-11T00:17:50;25.42;;;8.88;;
60014;SDS011;45867;52.480;6.056;2022-11-11T00:20:35;18.33;;;8.48;;
60014;SDS011;45867;52.480;6.056;2022-11-11T00:23:20;21.13;;;9.45;;
60014;SDS011;45867;52.480;6.056;2022-11-11T00:26:08;24.67;;;9.35;;
60014;SDS011;45867;52.480;6.056;2022-11-11T00:28:36;25.55;;;9.50;;
60014;SDS011;45867;52.480;6.056;2022-11-11T00:31:07;24.05;;;9.48;;
60014;SDS011;45867;52.480;6.056;2022-11-11T00:33:36;23.25;;;8.82;;
60014;SDS011;45867;52.480;6.056;2022-11-11T00:36:02;25.30;;;10.13;;
60014;SDS011;45867;52.480;6.056;2022-11-11T00:38:29;17.88;;;9.93;;
60014;SDS011;45867;52.480;6.056;2022-11-11T00:41:18;19.60;;;9.45;;
60014;SDS011;45867;52.480;6.056;2022-11-11T00:43:46;22.08;;;10.15;;
60014;SDS011;45867;52.480;6.056;2022-11-11T00:46:13;24.58;;;11.32;;
60014;SDS011;45867;52.480;6.056;2022-11-11T00:48:59;21.30;;;10.60;;
60014;SDS011;45867;52.480;6.056;2022-11-11T00:51:43;20.10;;;10.90;;
60014;SDS011;45867;52.480;6.056;2022-11-11T00:54:12;31.70;;;12.15;;
60014;SDS011;45867;52.480;6.056;2022-11-11T00:56:38;26.60;;;11.32;;
60014;SDS011;45867;52.480;6.056;2022-11-11T00:59:04;26.05;;;11.07;;
60014;SDS011;45867;52.480;6.056;2022-11-11T01:01:34;26.08;;;11.80;;
60014;SDS011;45867;52.480;6.056;2022-11-11T01:04:01;25.38;;;11.93;;
60014;SDS011;45867;52.480;6.056;2022-11-11T01:06:27;23.60;;;11.52;;
60014;SDS011;45867;52.480;6.056;2022-11-11T01:08:56;27.83;;;12.60;;
60014;SDS011;45867;52.480;6.056;2022-11-11T01:11:21;22.83;;;12.23;;
60014;SDS011;45867;52.480;6.056;2022-11-11T01:13:48;25.25;;;12.00;;
60014;SDS011;45867;52.480;6.056;2022-11-11T01:16:24;28.42;;;12.73;;
60014;SDS011;45867;52.480;6.056;2022-11-11T01:18:51;26.38;;;12.85;;
60014;SDS011;45867;52.480;6.056;2022-11-11T01:21:19;28.05;;;12.05;;
60014;SDS011;45867;52.480;6.056;2022-11-11T01:23:47;25.60;;;14.48;;
60014;SDS011;45867;52.480;6.056;2022-11-11T01:26:19;30.67;;;14.48;;
60014;SDS011;45867;52.480;6.056;2022-11-11T01:28:53;31.10;;;14.75;;
60014;SDS011;45867;52.480;6.056;2022-11-11T01:31:22;31.13;;;14.63;;
60014;SDS011;45867;52.480;6.056;2022-11-11T01:33:49;39.42;;;15.15;;
60014;SDS011;45867;52.480;6.056;2022-11-11T01:36:18;27.88;;;13.20;;
60014;SDS011;45867;52.480;6.056;2022-11-11T01:38:50;32.97;;;14.40;;
60014;SDS011;45867;52.480;6.056;2022-11-11T01:41:19;30.20;;;16.70;;
60014;SDS011;45867;52.480;6.056;2022-11-11T01:44:00;30.30;;;14.88;;
60014;SDS011;45867;52.480;6.056;2022-11-11T01:46:44;36.63;;;15.27;;
60014;SDS011;45867;52.480;6.056;2022-11-11T01:58:02;30.88;;;14.52;;
60014;SDS011;45867;52.480;6.056;2022-11-11T02:00:10;25.40;;;14.05;;
60014;SDS011;45867;52.480;6.056;2022-11-11T02:05:11;37.47;;;16.80;;
60014;SDS011;45867;52.480;6.056;2022-11-11T02:07:58;29.73;;;14.13;;
60014;SDS011;45867;52.480;6.056;2022-11-11T02:10:27;25.65;;;13.65;;
60014;SDS011;45867;52.480;6.056;2022-11-11T02:12:57;41.40;;;15.70;;
60014;SDS011;45867;52.480;6.056;2022-11-11T02:15:42;34.67;;;16.48;;
60014;SDS011;45867;52.480;6.056;2022-11-11T02:18:10;31.05;;;14.40;;
60014;SDS011;45867;52.480;6.056;2022-11-11T02:20:36;33.08;;;16.83;;
60014;SDS011;45867;52.480;6.056;2022-11-11T02:25:32;36.10;;;16.88;;
60014;SDS011;45867;52.480;6.056;2022-11-11T02:28:02;33.67;;;16.65;;
60014;SDS011;45867;52.480;6.056;2022-11-11T02:30:29;36.85;;;17.40;;
60014;SDS011;45867;52.480;6.056;2022-11-11T02:32:55;34.90;;;16.60;;
60014;SDS011;45867;52.480;6.056;2022-11-11T02:35:23;39.30;;;15.75;;
60014;SDS011;45867;52.480;6.056;2022-11-11T02:37:53;37.65;;;16.40;;
60014;SDS011;45867;52.480;6.056;2022-11-11T02:40:20;26.60;;;13.40;;
60014;SDS011;45867;52.480;6.056;2022-11-11T02:45:16;37.08;;;17.25;;
60014;SDS011;45867;52.480;6.056;2022-11-11T02:47:41;32.45;;;17.30;;
60014;SDS011;45867;52.480;6.056;2022-11-11T02:50:07;35.17;;;17.75;;
60014;SDS011;45867;52.480;6.056;2022-11-11T02:52:32;34.10;;;16.13;;
60014;SDS011;45867;52.480;6.056;2022-11-11T02:54:58;29.33;;;15.55;;
60014;SDS011;45867;52.480;6.056;2022-11-11T02:57:37;31.35;;;16.70;;
60014;SDS011;45867;52.480;6.056;2022-11-11T03:00:03;39.13;;;17.02;;
60014;SDS011;45867;52.480;6.056;2022-11-11T03:02:30;34.17;;;17.30;;
60014;SDS011;45867;52.480;6.056;2022-11-11T03:04:56;34.33;;;16.67;;
60014;SDS011;45867;52.480;6.056;2022-11-11T03:07:22;33.30;;;16.30;;
60014;SDS011;45867;52.480;6.056;2022-11-11T03:09:49;35.63;;;17.33;;
60014;SDS011;45867;52.480;6.056;2022-11-11T03:12:15;30.75;;;14.43;;
60014;SDS011;45867;52.480;6.056;2022-11-11T03:14:41;47.35;;;18.35;;
60014;SDS011;45867;52.480;6.056;2022-11-11T03:17:07;38.63;;;18.52;;
60014;SDS011;45867;52.480;6.056;2022-11-11T03:19:51;35.58;;;18.27;;
60014;SDS011;45867;52.480;6.056;2022-11-11T03:22:17;35.88;;;17.85;;
60014;SDS011;45867;52.480;6.056;2022-11-11T03:24:42;37.72;;;17.45;;
60014;SDS011;45867;52.480;6.056;2022-11-11T03:27:26;35.88;;;16.52;;
60014;SDS011;45867;52.480;6.056;2022-11-11T03:29:52;40.38;;;18.05;;
60014;SDS011;45867;52.480;6.056;2022-11-11T03:32:17;36.67;;;15.73;;
60014;SDS011;45867;52.480;6.056;2022-11-11T03:34:43;38.00;;;18.58;;
60014;SDS011;45867;52.480;6.056;2022-11-11T03:37:09;41.72;;;19.02;;
60014;SDS011;45867;52.480;6.056;2022-11-11T03:39:53;39.40;;;18.45;;
60014;SDS011;45867;52.480;6.056;2022-11-11T03:42:19;29.58;;;14.18;;
60014;SDS011;45867;52.480;6.056;2022-11-11T03:44:44;32.83;;;14.52;;
60014;SDS011;45867;52.480;6.056;2022-11-11T03:47:09;32.13;;;14.55;;
60014;SDS011;45867;52.480;6.056;2022-11-11T03:49:35;33.75;;;18.65;;
60014;SDS011;45867;52.480;6.056;2022-11-11T03:52:00;40.35;;;18.92;;
60014;SDS011;45867;52.480;6.056;2022-11-11T03:54:25;38.20;;;16.70;;
60014;SDS011;45867;52.480;6.056;2022-11-11T03:57:05;35.45;;;17.52;;
60014;SDS011;45867;52.480;6.056;2022-11-11T03:59:49;40.17;;;18.35;;
60014;SDS011;45867;52.480;6.056;2022-11-11T04:02:15;38.75;;;17.70;;
60014;SDS011;45867;52.480;6.056;2022-11-11T04:04:59;28.70;;;13.38;;
60014;SDS011;45867;52.480;6.056;2022-11-11T04:07:43;39.03;;;18.38;;
60014;SDS011;45867;52.480;6.056;2022-11-11T04:10:27;47.65;;;17.92;;
60014;SDS011;45867;52.480;6.056;2022-11-11T04:12:54;40.45;;;18.55;;
60014;SDS011;45867;52.480;6.056;2022-11-11T04:15:39;37.40;;;18.40;;
60014;SDS011;45867;52.480;6.056;2022-11-11T04:18:23;31.83;;;16.27;;
60014;SDS011;45867;52.480;6.056;2022-11-11T04:21:08;42.80;;;19.42;;
60014;SDS011;45867;52.480;6.056;2022-11-11T04:23:53;35.28;;;18.30;;
60014;SDS011;45867;52.480;6.056;2022-11-11T04:26:18;34.85;;;16.38;;
60014;SDS011;45867;52.480;6.056;2022-11-11T04:28:43;38.15;;;17.75;;
60014;SDS011;45867;52.480;6.056;2022-11-11T04:31:27;39.70;;;16.52;;
60014;SDS011;45867;52.480;6.056;2022-11-11T04:33:53;32.05;;;14.63;;
60014;SDS011;45867;52.480;6.056;2022-11-11T04:36:18;35.78;;;17.58;;
60014;SDS011;45867;52.480;6.056;2022-11-11T04:38:43;33.10;;;14.95;;
60014;SDS011;45867;52.480;6.056;2022-11-11T04:41:27;35.47;;;17.05;;
60014;SDS011;45867;52.480;6.056;2022-11-11T04:43:53;39.78;;;17.38;;
60014;SDS011;45867;52.480;6.056;2022-11-11T04:46:37;25.73;;;14.10;;
60014;SDS011;45867;52.480;6.056;2022-11-11T04:49:02;45.65;;;18.23;;
60014;SDS011;45867;52.480;6.056;2022-11-11T04:51:27;39.50;;;17.90;;
60014;SDS011;45867;52.480;6.056;2022-11-11T04:54:13;37.10;;;18.55;;
60014;SDS011;45867;52.480;6.056;2022-11-11T04:56:38;37.15;;;16.20;;
60014;SDS011;45867;52.480;6.056;2022-11-11T04:59:14;36.47;;;16.95;;
60014;SDS011;45867;52.480;6.056;2022-11-11T05:01:42;36.50;;;17.23;;
60014;SDS011;45867;52.480;6.056;2022-11-11T05:04:26;26.70;;;11.48;;
60014;SDS011;45867;52.480;6.056;2022-11-11T05:06:51;36.92;;;14.75;;
60014;SDS011;45867;52.480;6.056;2022-11-11T05:09:35;39.33;;;16.23;;
60014;SDS011;45867;52.480;6.056;2022-11-11T05:12:01;42.00;;;16.20;;
60014;SDS011;45867;52.480;6.056;2022-11-11T05:14:27;35.60;;;16.55;;
60014;SDS011;45867;52.480;6.056;2022-11-11T05:17:11;37.70;;;15.35;;
60014;SDS011;45867;52.480;6.056;2022-11-11T05:19:55;38.22;;;15.40;;
60014;SDS011;45867;52.480;6.056;2022-11-11T05:22:39;36.88;;;16.17;;
60014;SDS011;45867;52.480;6.056;2022-11-11T05:25:05;34.75;;;14.75;;
60014;SDS011;45867;52.480;6.056;2022-11-11T05:27:53;34.30;;;15.05;;
60014;SDS011;45867;52.480;6.056;2022-11-11T05:30:20;34.03;;;16.15;;
60014;SDS011;45867;52.480;6.056;2022-11-11T05:32:46;36.83;;;17.10;;
60014;SDS011;45867;52.480;6.056;2022-11-11T05:35:12;38.63;;;16.92;;
60014;SDS011;45867;52.480;6.056;2022-11-11T05:37:38;32.50;;;16.08;;
60014;SDS011;45867;52.480;6.056;2022-11-11T05:40:04;36.50;;;15.60;;
60014;SDS011;45867;52.480;6.056;2022-11-11T05:42:30;35.00;;;16.02;;
60014;SDS011;45867;52.480;6.056;2022-11-11T05:44:55;43.38;;;17.80;;
60014;SDS011;45867;52.480;6.056;2022-11-11T05:47:21;35.15;;;16.20;;
60014;SDS011;45867;52.480;6.056;2022-11-11T05:49:46;29.30;;;16.30;;
60014;SDS011;45867;52.480;6.056;2022-11-11T05:52:13;29.92;;;15.02;;
60014;SDS011;45867;52.480;6.056;2022-11-11T05:54:40;29.52;;;15.48;;
60014;SDS011;45867;52.480;6.056;2022-11-11T05:57:24;31.65;;;15.18;;
60014;SDS011;45867;52.480;6.056;2022-11-11T05:59:50;29.20;;;13.95;;
60014;SDS011;45867;52.480;6.056;2022-11-11T06:02:15;28.35;;;13.25;;
60014;SDS011;45867;52.480;6.056;2022-11-11T06:04:41;23.67;;;14.25;;
60014;SDS011;45867;52.480;6.056;2022-11-11T06:07:06;32.88;;;14.80;;
60014;SDS011;45867;52.480;6.056;2022-11-11T06:09:31;27.73;;;15.13;;
60014;SDS011;45867;52.480;6.056;2022-11-11T06:11:57;27.30;;;12.77;;
60014;SDS011;45867;52.480;6.056;2022-11-11T06:14:22;22.95;;;11.88;;
60014;SDS011;45867;52.480;6.056;2022-11-11T06:16:47;35.10;;;14.90;;
60014;SDS011;45867;52.480;6.056;2022-11-11T06:19:13;29.85;;;14.27;;
60014;SDS011;45867;52.480;6.056;2022-11-11T06:21:38;27.88;;;13.77;;
60014;SDS011;45867;52.480;6.056;2022-11-11T06:24:22;28.08;;;12.45;;
60014;SDS011;45867;52.480;6.056;2022-11-11T06:26:47;26.95;;;14.32;;
60014;SDS011;45867;52.480;6.056;2022-11-11T06:29:13;24.73;;;14.48;;
60014;SDS011;45867;52.480;6.056;2022-11-11T06:31:38;23.48;;;12.10;;
60014;SDS011;45867;52.480;6.056;2022-11-11T06:34:04;29.10;;;14.00;;
60014;SDS011;45867;52.480;6.056;2022-11-11T06:36:29;25.23;;;12.88;;
60014;SDS011;45867;52.480;6.056;2022-11-11T06:38:54;26.30;;;12.93;;
60014;SDS011;45867;52.480;6.056;2022-11-11T06:41:20;25.00;;;11.73;;
60014;SDS011;45867;52.480;6.056;2022-11-11T06:43:48;35.00;;;14.75;;
60014;SDS011;45867;52.480;6.056;2022-11-11T06:46:23;26.50;;;13.88;;
60014;SDS011;45867;52.480;6.056;2022-11-11T06:48:52;34.78;;;13.02;;
60014;SDS011;45867;52.480;6.056;2022-11-11T06:51:18;28.85;;;13.65;;
60014;SDS011;45867;52.480;6.056;2022-11-11T06:53:43;29.17;;;13.73;;
60014;SDS011;45867;52.480;6.056;2022-11-11T06:56:09;28.48;;;12.73;;
60014;SDS011;45867;52.480;6.056;2022-11-11T06:58:36;27.52;;;12.73;;
60014;SDS011;45867;52.480;6.056;2022-11-11T07:01:03;22.67;;;13.13;;
60014;SDS011;45867;52.480;6.056;2022-11-11T07:03:29;23.92;;;12.38;;
60014;SDS011;45867;52.480;6.056;2022-11-11T07:05:55;31.55;;;13.75;;
60014;SDS011;45867;52.480;6.056;2022-11-11T07:08:20;28.25;;;13.13;;
60014;SDS011;45867;52.480;6.056;2022-11-11T07:10:46;29.33;;;13.32;;
60014;SDS011;45867;52.480;6.056;2022-11-11T07:13:13;28.02;;;13.82;;
60014;SDS011;45867;52.480;6.056;2022-11-11T07:15:43;26.50;;;11.85;;
60014;SDS011;45867;52.480;6.056;2022-11-11T07:18:09;28.20;;;12.88;;
60014;SDS011;45867;52.480;6.056;2022-11-11T07:20:34;30.05;;;12.60;;
60014;SDS011;45867;52.480;6.056;2022-11-11T07:23:01;22.45;;;12.00;;
60014;SDS011;45867;52.480;6.056;2022-11-11T07:25:27;26.27;;;11.80;;
60014;SDS011;45867;52.480;6.056;2022-11-11T07:27:52;24.48;;;12.23;;
60014;SDS011;45867;52.480;6.056;2022-11-11T07:30:17;25.63;;;12.98;;
60014;SDS011;45867;52.480;6.056;2022-11-11T07:32:47;26.20;;;13.23;;
60014;SDS011;45867;52.480;6.056;2022-11-11T07:35:14;31.63;;;12.60;;
60014;SDS011;45867;52.480;6.056;2022-11-11T07:37:44;22.67;;;11.52;;
60014;SDS011;45867;52.480;6.056;2022-11-11T07:40:10;27.88;;;12.98;;
60014;SDS011;45867;52.480;6.056;2022-11-11T07:42:38;23.33;;;11.63;;
60014;SDS011;45867;52.480;6.056;2022-11-11T07:45:05;21.83;;;11.20;;
60014;SDS011;45867;52.480;6.056;2022-11-11T07:47:31;26.50;;;12.35;;
60014;SDS011;45867;52.480;6.056;2022-11-11T07:49:58;22.00;;;11.70;;
60014;SDS011;45867;52.480;6.056;2022-11-11T07:52:23;20.58;;;11.63;;
60014;SDS011;45867;52.480;6.056;2022-11-11T07:54:49;27.33;;;11.38;;
60014;SDS011;45867;52.480;6.056;2022-11-11T07:57:16;25.50;;;12.20;;
60014;SDS011;45867;52.480;6.056;2022-11-11T07:59:42;30.17;;;11.38;;
60014;SDS011;45867;52.480;6.056;2022-11-11T08:02:08;25.55;;;10.90;;
60014;SDS011;45867;52.480;6.056;2022-11-11T08:04:35;18.50;;;10.65;;
60014;SDS011;45867;52.480;6.056;2022-11-11T08:07:00;25.42;;;10.50;;
60014;SDS011;45867;52.480;6.056;2022-11-11T08:09:26;27.05;;;10.82;;
60014;SDS011;45867;52.480;6.056;2022-11-11T08:11:51;24.42;;;10.68;;
60014;SDS011;45867;52.480;6.056;2022-11-11T08:14:35;24.40;;;11.00;;
60014;SDS011;45867;52.480;6.056;2022-11-11T08:17:00;21.08;;;10.02;;
60014;SDS011;45867;52.480;6.056;2022-11-11T08:19:26;23.48;;;11.20;;
60014;SDS011;45867;52.480;6.056;2022-11-11T08:21:51;18.58;;;10.18;;
60014;SDS011;45867;52.480;6.056;2022-11-11T08:24:16;22.17;;;10.35;;
60014;SDS011;45867;52.480;6.056;2022-11-11T08:26:43;21.40;;;9.82;;
60014;SDS011;45867;52.480;6.056;2022-11-11T08:29:08;23.55;;;10.40;;
60014;SDS011;45867;52.480;6.056;2022-11-11T08:31:33;25.40;;;10.38;;
60014;SDS011;45867;52.480;6.056;2022-11-11T08:33:59;20.52;;;10.65;;
60014;SDS011;45867;52.480;6.056;2022-11-11T08:36:27;30.70;;;11.80;;
60014;SDS011;45867;52.480;6.056;2022-11-11T08:38:53;21.67;;;9.27;;
60014;SDS011;45867;52.480;6.056;2022-11-11T08:41:18;16.98;;;9.75;;
60014;SDS011;45867;52.480;6.056;2022-11-11T08:43:45;18.58;;;10.23;;
60014;SDS011;45867;52.480;6.056;2022-11-11T08:46:11;22.10;;;9.98;;
60014;SDS011;45867;52.480;6.056;2022-11-11T08:48:36;19.35;;;10.10;;
60014;SDS011;45867;52.480;6.056;2022-11-11T08:51:01;16.38;;;9.55;;
60014;SDS011;45867;52.480;6.056;2022-11-11T08:53:27;21.30;;;10.63;;
60014;SDS011;45867;52.480;6.056;2022-11-11T08:55:52;21.55;;;10.15;;
60014;SDS011;45867;52.480;6.056;2022-11-11T08:58:18;25.52;;;10.10;;
60014;SDS011;45867;52.480;6.056;2022-11-11T09:00:44;24.00;;;10.18;;
60014;SDS011;45867;52.480;6.056;2022-11-11T09:03:10;17.80;;;9.43;;
60014;SDS011;45867;52.480;6.056;2022-11-11T09:05:39;16.42;;;9.07;;
60014;SDS011;45867;52.480;6.056;2022-11-11T09:08:05;23.23;;;9.98;;
60014;SDS011;45867;52.480;6.056;2022-11-11T09:10:32;24.65;;;10.18;;
60014;SDS011;45867;52.480;6.056;2022-11-11T09:13:01;20.23;;;10.93;;
60014;SDS011;45867;52.480;6.056;2022-11-11T09:15:27;21.75;;;9.75;;
60014;SDS011;45867;52.480;6.056;2022-11-11T09:17:53;23.20;;;9.98;;
60014;SDS011;45867;52.480;6.056;2022-11-11T09:20:19;17.92;;;9.70;;
60014;SDS011;45867;52.480;6.056;2022-11-11T09:22:45;17.95;;;9.88;;
60014;SDS011;45867;52.480;6.056;2022-11-11T09:25:11;16.00;;;9.32;;
60014;SDS011;45867;52.480;6.056;2022-11-11T09:27:37;19.33;;;9.18;;
60014;SDS011;45867;52.480;6.056;2022-11-11T09:30:02;16.75;;;8.75;;
60014;SDS011;45867;52.480;6.056;2022-11-11T09:32:30;18.30;;;8.77;;
60014;SDS011;45867;52.480;6.056;2022-11-11T09:34:56;19.85;;;8.48;;
60014;SDS011;45867;52.480;6.056;2022-11-11T09:37:24;17.80;;;8.85;;
60014;SDS011;45867;52.480;6.056;2022-11-11T09:39:50;20.38;;;9.13;;
60014;SDS011;45867;52.480;6.056;2022-11-11T09:45:08;18.90;;;8.57;;
60014;SDS011;45867;52.480;6.056;2022-11-11T09:50:24;16.08;;;9.05;;
60014;SDS011;45867;52.480;6.056;2022-11-11T09:52:56;15.15;;;7.20;;
60014;SDS011;45867;52.480;6.056;2022-11-11T09:55:34;17.40;;;8.65;;
60014;SDS011;45867;52.480;6.056;2022-11-11T09:58:05;18.73;;;7.72;;
60014;SDS011;45867;52.480;6.056;2022-11-11T10:00:44;14.55;;;8.43;;
60014;SDS011;45867;52.480;6.056;2022-11-11T10:03:13;16.95;;;7.65;;
60014;SDS011;45867;52.480;6.056;2022-11-11T10:05:51;15.70;;;7.75;;
60014;SDS011;45867;52.480;6.056;2022-11-11T10:08:33;16.17;;;8.00;;
60014;SDS011;45867;52.480;6.056;2022-11-11T10:11:11;15.13;;;7.10;;
60014;SDS011;45867;52.480;6.056;2022-11-11T10:13:44;17.25;;;7.93;;
60014;SDS011;45867;52.480;6.056;2022-11-11T10:22:18;13.32;;;8.05;;
60014;SDS011;45867;52.480;6.056;2022-11-11T10:24:53;14.88;;;7.60;;
60014;SDS011;45867;52.480;6.056;2022-11-11T10:27:47;13.45;;;7.43;;
60014;SDS011;45867;52.480;6.056;2022-11-11T10:30:22;14.18;;;7.63;;
60014;SDS011;45867;52.480;6.056;2022-11-11T10:32:54;14.25;;;7.45;;
60014;SDS011;45867;52.480;6.056;2022-11-11T10:35:23;13.77;;;7.85;;
60014;SDS011;45867;52.480;6.056;2022-11-11T10:37:55;13.38;;;7.65;;
60014;SDS011;45867;52.480;6.056;2022-11-11T10:40:56;14.00;;;7.53;;
60014;SDS011;45867;52.480;6.056;2022-11-11T10:43:25;15.30;;;7.93;;
60014;SDS011;45867;52.480;6.056;2022-11-11T10:48:39;17.23;;;7.55;;
60014;SDS011;45867;52.480;6.056;2022-11-11T10:51:05;14.80;;;8.15;;
60014;SDS011;45867;52.480;6.056;2022-11-11T10:53:40;15.35;;;7.57;;
60014;SDS011;45867;52.480;6.056;2022-11-11T10:56:37;17.42;;;7.20;;
60014;SDS011;45867;52.480;6.056;2022-11-11T10:59:27;8.68;;;5.82;;
60014;SDS011;45867;52.480;6.056;2022-11-11T11:02:05;13.30;;;7.70;;
60014;SDS011;45867;52.480;6.056;2022-11-11T11:05:02;15.25;;;7.43;;
60014;SDS011;45867;52.480;6.056;2022-11-11T11:07:47;16.90;;;7.68;;
60014;SDS011;45867;52.480;6.056;2022-11-11T11:10:20;14.95;;;7.75;;
60014;SDS011;45867;52.480;6.056;2022-11-11T11:15:27;15.77;;;6.97;;
60014;SDS011;45867;52.480;6.056;2022-11-11T11:17:57;13.48;;;7.57;;
60014;SDS011;45867;52.480;6.056;2022-11-11T11:20:27;14.15;;;7.32;;
60014;SDS011;45867;52.480;6.056;2022-11-11T11:22:53;10.23;;;7.05;;
60014;SDS011;45867;52.480;6.056;2022-11-11T11:25:23;12.20;;;6.95;;
60014;SDS011;45867;52.480;6.056;2022-11-11T11:27:50;12.13;;;7.13;;
60014;SDS011;45867;52.480;6.056;2022-11-11T11:30:17;12.95;;;7.10;;
60014;SDS011;45867;52.480;6.056;2022-11-11T11:32:57;14.30;;;7.28;;
60014;SDS011;45867;52.480;6.056;2022-11-11T11:35:32;10.90;;;7.82;;
60014;SDS011;45867;52.480;6.056;2022-11-11T11:37:58;13.43;;;6.93;;
60014;SDS011;45867;52.480;6.056;2022-11-11T11:40:24;11.68;;;7.03;;
60014;SDS011;45867;52.480;6.056;2022-11-11T11:42:49;12.25;;;6.68;;
60014;SDS011;45867;52.480;6.056;2022-11-11T11:45:18;15.25;;;7.53;;
60014;SDS011;45867;52.480;6.056;2022-11-11T11:50:36;10.77;;;6.40;;
60014;SDS011;45867;52.480;6.056;2022-11-11T11:56:04;9.48;;;6.20;;
60014;SDS011;45867;52.480;6.056;2022-11-11T12:01:50;12.38;;;7.03;;
60014;SDS011;45867;52.480;6.056;2022-11-11T12:04:33;14.65;;;7.20;;
60014;SDS011;45867;52.480;6.056;2022-11-11T12:07:33;12.70;;;6.70;;
60014;SDS011;45867;52.480;6.056;2022-11-11T12:13:33;13.27;;;7.22;;
60014;SDS011;45867;52.480;6.056;2022-11-11T12:16:26;13.98;;;7.32;;
60014;SDS011;45867;52.480;6.056;2022-11-11T12:21:38;11.18;;;6.43;;
60014;SDS011;45867;52.480;6.056;2022-11-11T12:24:24;15.40;;;6.78;;
60014;SDS011;45867;52.480;6.056;2022-11-11T12:27:03;12.05;;;6.28;;
60014;SDS011;45867;52.480;6.056;2022-11-11T12:29:52;12.70;;;6.45;;
60014;SDS011;45867;52.480;6.056;2022-11-11T12:41:58;15.85;;;5.38;;
60014;SDS011;45867;52.480;6.056;2022-11-11T12:47:47;14.43;;;5.22;;
60014;SDS011;45867;52.480;6.056;2022-11-11T12:50:28;13.30;;;5.40;;
60014;SDS011;45867;52.480;6.056;2022-11-11T13:01:19;9.18;;;5.40;;
60014;SDS011;45867;52.480;6.056;2022-11-11T13:06:37;11.93;;;5.13;;
60014;SDS011;45867;52.480;6.056;2022-11-11T13:12:02;9.20;;;5.28;;
60014;SDS011;45867;52.480;6.056;2022-11-11T13:17:15;12.70;;;5.45;;
60014;SDS011;45867;52.480;6.056;2022-11-11T13:19:45;11.82;;;5.25;;
60014;SDS011;45867;52.480;6.056;2022-11-11T13:22:21;8.32;;;5.22;;
60014;SDS011;45867;52.480;6.056;2022-11-11T13:24:49;9.57;;;5.30;;
60014;SDS011;45867;52.480;6.056;2022-11-11T13:27:31;10.55;;;5.22;;
60014;SDS011;45867;52.480;6.056;2022-11-11T13:32:44;9.65;;;4.97;;
60014;SDS011;45867;52.480;6.056;2022-11-11T13:35:32;13.07;;;5.60;;
60014;SDS011;45867;52.480;6.056;2022-11-11T13:38:01;8.63;;;5.50;;
60014;SDS011;45867;52.480;6.056;2022-11-11T13:40:35;11.05;;;5.68;;
60014;SDS011;45867;52.480;6.056;2022-11-11T13:43:04;12.20;;;5.85;;
60014;SDS011;45867;52.480;6.056;2022-11-11T13:45:40;12.82;;;6.05;;
60014;SDS011;45867;52.480;6.056;2022-11-11T13:48:20;14.38;;;5.50;;
60014;SDS011;45867;52.480;6.056;2022-11-11T13:50:50;12.07;;;5.97;;
60014;SDS011;45867;52.480;6.056;2022-11-11T13:53:31;10.68;;;6.38;;
60014;SDS011;45867;52.480;6.056;2022-11-11T13:56:03;12.00;;;5.43;;
60014;SDS011;45867;52.480;6.056;2022-11-11T14:00:59;9.73;;;6.07;;
60014;SDS011;45867;52.480;6.056;2022-11-11T14:03:29;14.32;;;6.15;;
60014;SDS011;45867;52.480;6.056;2022-11-11T14:13:54;10.02;;;5.82;;
60014;SDS011;45867;52.480;6.056;2022-11-11T14:24:24;13.50;;;6.22;;
60014;SDS011;45867;52.480;6.056;2022-11-11T14:26:57;17.05;;;7.10;;
60014;SDS011;45867;52.480;6.056;2022-11-11T14:29:25;13.68;;;6.47;;
60014;SDS011;45867;52.480;6.056;2022-11-11T14:34:53;19.75;;;6.85;;
60014;SDS011;45867;52.480;6.056;2022-11-11T14:40:03;15.23;;;6.85;;
60014;SDS011;45867;52.480;6.056;2022-11-11T14:45:00;15.75;;;7.03;;
60014;SDS011;45867;52.480;6.056;2022-11-11T14:50:02;12.80;;;6.72;;
60014;SDS011;45867;52.480;6.056;2022-11-11T14:52:48;11.25;;;6.82;;
60014;SDS011;45867;52.480;6.056;2022-11-11T14:55:14;20.75;;;6.93;;
60014;SDS011;45867;52.480;6.056;2022-11-11T14:57:56;19.42;;;7.22;;
60014;SDS011;45867;52.480;6.056;2022-11-11T15:01:11;14.07;;;6.78;;
60014;SDS011;45867;52.480;6.056;2022-11-11T15:11:44;13.60;;;6.40;;
60014;SDS011;45867;52.480;6.056;2022-11-11T15:22:46;17.20;;;6.88;;
60014;SDS011;45867;52.480;6.056;2022-11-11T15:28:43;14.55;;;7.03;;
60014;SDS011;45867;52.480;6.056;2022-11-11T15:36:56;13.13;;;7.45;;
60014;SDS011;45867;52.480;6.056;2022-11-11T15:39:26;17.83;;;8.45;;
60014;SDS011;45867;52.480;6.056;2022-11-11T15:42:03;18.27;;;7.55;;
60014;SDS011;45867;52.480;6.056;2022-11-11T15:44:29;17.63;;;7.95;;
60014;SDS011;45867;52.480;6.056;2022-11-11T15:46:56;14.27;;;7.88;;
60014;SDS011;45867;52.480;6.056;2022-11-11T15:49:36;15.25;;;7.63;;
60014;SDS011;45867;52.480;6.056;2022-11-11T15:54:47;15.85;;;7.40;;
60014;SDS011;45867;52.480;6.056;2022-11-11T15:57:24;16.10;;;7.18;;
60014;SDS011;45867;52.480;6.056;2022-11-11T15:59:51;15.05;;;7.70;;
60014;SDS011;45867;52.480;6.056;2022-11-11T16:02:21;16.75;;;7.80;;
60014;SDS011;45867;52.480;6.056;2022-11-11T16:04:50;12.88;;;7.55;;
60014;SDS011;45867;52.480;6.056;2022-11-11T16:07:19;19.10;;;7.72;;
60014;SDS011;45867;52.480;6.056;2022-11-11T16:09:47;20.23;;;8.32;;
60014;SDS011;45867;52.480;6.056;2022-11-11T16:12:15;13.85;;;7.55;;
60014;SDS011;45867;52.480;6.056;2022-11-11T16:17:13;13.98;;;7.65;;
60014;SDS011;45867;52.480;6.056;2022-11-11T16:19:40;12.95;;;7.40;;
60014;SDS011;45867;52.480;6.056;2022-11-11T16:22:15;15.90;;;8.02;;
60014;SDS011;45867;52.480;6.056;2022-11-11T16:24:42;14.32;;;8.05;;
60014;SDS011;45867;52.480;6.056;2022-11-11T16:27:11;17.08;;;9.25;;
60014;SDS011;45867;52.480;6.056;2022-11-11T16:29:41;16.50;;;8.70;;
60014;SDS011;45867;52.480;6.056;2022-11-11T16:34:48;19.05;;;9.45;;
60014;SDS011;45867;52.480;6.056;2022-11-11T16:37:14;21.95;;;11.25;;
60014;SDS011;45867;52.480;6.056;2022-11-11T16:39:41;19.55;;;10.63;;
60014;SDS011;45867;52.480;6.056;2022-11-11T16:42:15;17.38;;;10.82;;
60014;SDS011;45867;52.480;6.056;2022-11-11T16:47:47;19.58;;;9.88;;
60014;SDS011;45867;52.480;6.056;2022-11-11T16:50:23;18.45;;;9.85;;
60014;SDS011;45867;52.480;6.056;2022-11-11T16:52:56;20.40;;;9.93;;
60014;SDS011;45867;52.480;6.056;2022-11-11T16:55:26;22.40;;;11.20;;
60014;SDS011;45867;52.480;6.056;2022-11-11T16:57:57;20.03;;;10.57;;
60014;SDS011;45867;52.480;6.056;2022-11-11T17:00:24;18.83;;;10.75;;
60014;SDS011;45867;52.480;6.056;2022-11-11T17:05:45;21.67;;;11.93;;
60014;SDS011;45867;52.480;6.056;2022-11-11T17:11:01;24.00;;;13.18;;
60014;SDS011;45867;52.480;6.056;2022-11-11T17:13:35;32.75;;;18.67;;
60014;SDS011;45867;52.480;6.056;2022-11-11T17:16:02;34.38;;;20.77;;
60014;SDS011;45867;52.480;6.056;2022-11-11T17:18:32;39.50;;;29.35;;
60014;SDS011;45867;52.480;6.056;2022-11-11T17:20:59;33.15;;;21.35;;